Time;durP1;ratioP1;P1;durP2;ratioP2;P2;SDS_P1;SDS_P2;PMS_P1;PMS_P2;Temp;Humidity;BMP_temperature;BMP_pressure;BME280_temperature;BME280_humidity;BME280_pressure;Samples;Min_cycle;Max_cycle;Signal;HPM_P1;HPM_P2
2021/06/30 00:00:39;;;;;;;0.90;0.50;;;16.90;86.30;;;;;;2048477;29;20090;-84
2021/06/30 00:01:39;;;;;;;0.88;0.60;;;16.90;86.40;;;;;;2065664;28;20034;-84
2021/06/30 00:02:40;;;;;;;1.05;0.82;;;16.90;86.40;;;;;;2057992;28;20042;-84
2021/06/30 00:03:41;;;;;;;0.70;0.60;;;16.90;86.50;;;;;;2068481;28;20133;-84
2021/06/30 00:04:42;;;;;;;0.80;0.60;;;16.90;86.60;;;;;;2064907;28;20042;-84
2021/06/30 00:05:43;;;;;;;0.90;0.60;;;16.90;86.70;;;;;;2069918;28;20077;-84
2021/06/30 00:06:43;;;;;;;0.68;0.50;;;16.80;86.60;;;;;;2072688;28;20034;-84
2021/06/30 00:07:44;;;;;;;0.82;0.47;;;16.80;86.70;;;;;;2065100;28;20158;-84
2021/06/30 00:08:45;;;;;;;1.48;0.70;;;16.80;86.80;;;;;;2065079;28;20045;-84
2021/06/30 00:09:46;;;;;;;0.93;0.60;;;16.80;86.90;;;;;;2057882;28;20031;-83
2021/06/30 00:10:48;;;;;;;0.50;0.40;;;16.80;87.00;;;;;;2065474;28;20038;-84
2021/06/30 00:11:49;;;;;;;1.05;0.50;;;16.80;87.20;;;;;;2073848;28;20026;-84
2021/06/30 00:12:49;;;;;;;1.33;0.60;;;16.80;87.20;;;;;;2078513;28;20115;-84
2021/06/30 00:13:50;;;;;;;0.63;0.50;;;16.80;87.20;;;;;;2081507;28;20028;-84
2021/06/30 00:14:52;;;;;;;0.82;0.50;;;16.80;87.20;;;;;;2073511;28;20042;-84
2021/06/30 00:15:54;;;;;;;1.67;0.50;;;16.80;87.30;;;;;;2065610;28;20374;-84
2021/06/30 00:16:55;;;;;;;0.93;0.52;;;16.70;87.20;;;;;;2081903;28;20057;-84
2021/06/30 00:17:56;;;;;;;0.73;0.60;;;16.70;87.20;;;;;;2080131;28;20026;-83
2021/06/30 00:18:57;;;;;;;1.10;0.65;;;16.70;87.30;;;;;;2065566;28;20042;-84
2021/06/30 00:19:58;;;;;;;0.40;0.40;;;16.70;87.50;;;;;;2073603;28;20080;-84
2021/06/30 00:20:59;;;;;;;0.50;0.50;;;16.70;87.60;;;;;;2073267;28;20029;-84
2021/06/30 00:21:59;;;;;;;0.60;0.50;;;16.70;87.60;;;;;;2065180;28;20590;-83
2021/06/30 00:23:00;;;;;;;0.50;0.40;;;16.70;87.60;;;;;;2072748;28;20128;-84
2021/06/30 00:24:01;;;;;;;0.80;0.50;;;16.70;87.70;;;;;;2080563;28;20143;-83
2021/06/30 00:25:02;;;;;;;0.50;0.40;;;16.70;87.70;;;;;;2064919;28;20034;-83
2021/06/30 00:26:03;;;;;;;1.02;0.40;;;16.70;87.60;;;;;;2065396;28;20027;-84
2021/06/30 00:27:04;;;;;;;0.60;0.50;;;16.70;87.60;;;;;;2064691;28;20034;-84
2021/06/30 00:28:05;;;;;;;0.50;0.40;;;16.60;87.60;;;;;;2067339;28;20520;-84
2021/06/30 00:29:06;;;;;;;0.70;0.47;;;16.60;87.70;;;;;;2067743;28;20027;-84
2021/06/30 00:30:08;;;;;;;0.93;0.52;;;16.60;87.80;;;;;;2072117;28;20451;-84
2021/06/30 00:31:08;;;;;;;0.55;0.52;;;16.60;87.90;;;;;;2065275;28;20038;-83
2021/06/30 00:32:09;;;;;;;0.60;0.50;;;16.60;87.80;;;;;;2065325;28;20400;-84
2021/06/30 00:33:10;;;;;;;0.43;0.40;;;16.50;87.80;;;;;;2065132;28;20023;-84
2021/06/30 00:34:11;;;;;;;1.13;0.52;;;16.50;87.90;;;;;;2073614;28;20030;-84
2021/06/30 00:35:16;;;;;;;0.90;0.60;;;16.60;88.00;;;;;;2081405;28;20547;-84
2021/06/30 00:36:16;;;;;;;0.73;0.60;;;16.50;88.10;;;;;;2081221;28;20029;-84
2021/06/30 00:37:17;;;;;;;0.88;0.50;;;16.50;88.20;;;;;;2081908;28;20353;-84
2021/06/30 00:38:18;;;;;;;0.52;0.50;;;16.60;88.20;;;;;;2081974;28;20026;-84
2021/06/30 00:39:21;;;;;;;0.85;0.60;;;16.60;88.80;;;;;;2065821;28;20500;-84
2021/06/30 00:40:22;;;;;;;1.48;0.50;;;16.50;88.10;;;;;;2065278;28;20162;-84
2021/06/30 00:41:22;;;;;;;0.90;0.70;;;16.50;88.20;;;;;;2073351;28;20072;-84
2021/06/30 00:42:23;;;;;;;0.77;0.57;;;16.50;88.20;;;;;;2064876;28;20037;-84
2021/06/30 00:43:24;;;;;;;0.60;0.50;;;16.50;88.20;;;;;;2072667;28;20500;-83
2021/06/30 00:44:24;;;;;;;0.85;0.50;;;16.50;88.20;;;;;;2073459;28;20036;-83
2021/06/30 00:45:25;;;;;;;1.27;0.60;;;16.50;88.20;;;;;;2064830;28;20034;-83
2021/06/30 00:46:30;;;;;;;0.55;0.47;;;16.50;88.20;;;;;;2081495;28;20025;-83
2021/06/30 00:47:32;;;;;;;0.85;0.60;;;16.40;88.10;;;;;;2072913;28;20037;-83
2021/06/30 00:48:32;;;;;;;0.80;0.55;;;16.40;88.20;;;;;;2064143;28;20022;-83
2021/06/30 00:49:33;;;;;;;0.60;0.50;;;16.40;88.30;;;;;;2057137;28;20043;-83
2021/06/30 00:50:34;;;;;;;0.93;0.57;;;16.40;88.40;;;;;;2056772;28;20034;-83
2021/06/30 00:51:35;;;;;;;0.98;0.60;;;16.30;88.40;;;;;;2072427;28;20128;-83
2021/06/30 00:52:35;;;;;;;0.52;0.43;;;16.30;88.40;;;;;;2071839;28;20034;-83
2021/06/30 00:53:36;;;;;;;0.95;0.68;;;16.30;88.50;;;;;;2070941;28;20595;-83
2021/06/30 00:54:36;;;;;;;0.85;0.50;;;16.40;88.50;;;;;;2056418;28;20494;-83
2021/06/30 00:55:38;;;;;;;1.13;0.63;;;16.40;88.50;;;;;;2042604;28;20379;-83
2021/06/30 00:56:39;;;;;;;1.00;0.70;;;16.40;88.50;;;;;;2064073;28;20054;-83
2021/06/30 00:57:41;;;;;;;0.95;0.50;;;16.40;88.50;;;;;;2073404;28;20038;-83
2021/06/30 00:58:42;;;;;;;0.75;0.57;;;16.40;88.40;;;;;;2072440;28;20504;-83
2021/06/30 00:59:43;;;;;;;0.85;0.57;;;16.40;88.30;;;;;;2065564;28;20081;-83
2021/06/30 01:00:44;;;;;;;0.90;0.60;;;16.40;88.30;;;;;;2064860;28;20084;-83
2021/06/30 01:01:44;;;;;;;0.90;0.70;;;16.40;88.20;;;;;;2073044;28;20574;-83
2021/06/30 01:02:45;;;;;;;1.35;0.77;;;16.40;88.80;;;;;;2065093;28;20033;-83
2021/06/30 01:03:50;;;;;;;0.95;0.68;;;16.40;88.20;;;;;;2055022;28;20529;-83
2021/06/30 01:04:51;;;;;;;1.15;0.60;;;16.30;88.20;;;;;;2064077;28;21421;-83
2021/06/30 01:05:51;;;;;;;1.23;0.80;;;16.30;88.40;;;;;;2073284;28;20081;-83
2021/06/30 01:06:52;;;;;;;1.10;0.80;;;16.30;88.50;;;;;;2065077;28;20035;-83
2021/06/30 01:07:53;;;;;;;1.33;0.70;;;16.30;88.40;;;;;;2067662;28;20074;-83
2021/06/30 01:08:53;;;;;;;1.48;0.70;;;16.30;88.50;;;;;;2059322;28;20646;-83
2021/06/30 01:09:54;;;;;;;0.70;0.60;;;16.30;88.50;;;;;;2065128;28;20046;-83
2021/06/30 01:10:55;;;;;;;0.85;0.60;;;16.30;88.60;;;;;;2057098;28;20023;-84
2021/06/30 01:11:58;;;;;;;1.67;0.77;;;16.30;88.60;;;;;;2057354;28;20039;-84
2021/06/30 01:12:59;;;;;;;1.33;0.70;;;16.30;88.60;;;;;;2072877;28;20022;-84
2021/06/30 01:13:59;;;;;;;1.00;0.60;;;16.30;88.60;;;;;;2072670;28;20034;-84
2021/06/30 01:15:05;;;;;;;0.63;0.60;;;16.30;88.60;;;;;;2065052;28;20035;-83
2021/06/30 01:16:06;;;;;;;0.75;0.60;;;16.30;88.60;;;;;;2062515;28;20030;-83
2021/06/30 01:17:08;;;;;;;0.88;0.60;;;16.30;88.50;;;;;;2073249;28;20025;-84
2021/06/30 01:18:08;;;;;;;0.70;0.60;;;16.30;88.40;;;;;;2072469;28;20018;-84
2021/06/30 01:19:09;;;;;;;0.70;0.57;;;16.40;88.50;;;;;;2073278;28;20037;-85
2021/06/30 01:20:10;;;;;;;2.38;0.75;;;16.40;88.40;;;;;;2064786;28;20118;-84
2021/06/30 01:21:12;;;;;;;0.95;0.70;;;16.40;88.40;;;;;;2064757;28;20041;-85
2021/06/30 01:22:13;;;;;;;1.45;0.70;;;16.40;88.40;;;;;;2064934;28;20084;-84
2021/06/30 01:23:13;;;;;;;0.68;0.47;;;16.30;88.30;;;;;;2059333;28;20073;-83
2021/06/30 01:24:15;;;;;;;1.45;0.80;;;16.40;88.40;;;;;;2065082;28;20444;-83
2021/06/30 01:25:15;;;;;;;1.10;0.70;;;16.40;88.40;;;;;;2069723;28;20031;-83
2021/06/30 01:26:16;;;;;;;1.58;0.80;;;16.30;88.30;;;;;;2073424;28;20030;-83
2021/06/30 01:27:18;;;;;;;0.68;0.52;;;16.30;88.40;;;;;;2076726;28;20037;-84
2021/06/30 01:28:20;;;;;;;0.90;0.50;;;16.30;88.40;;;;;;2073603;28;20121;-84
2021/06/30 01:29:22;;;;;;;0.82;0.70;;;16.30;88.60;;;;;;2078943;28;20399;-83
2021/06/30 01:30:22;;;;;;;1.17;0.60;;;16.20;88.60;;;;;;2072808;28;20026;-84
2021/06/30 01:31:23;;;;;;;0.93;0.60;;;16.20;88.70;;;;;;2063937;28;20434;-83
2021/06/30 01:32:24;;;;;;;0.95;0.65;;;16.20;88.80;;;;;;2080657;28;20033;-83
2021/06/30 01:33:25;;;;;;;1.38;0.60;;;16.30;88.70;;;;;;2081227;28;20053;-83
2021/06/30 01:34:26;;;;;;;1.40;0.60;;;16.30;88.70;;;;;;2080046;28;20021;-83
2021/06/30 01:35:27;;;;;;;0.90;0.70;;;16.30;88.70;;;;;;2072620;28;20042;-83
2021/06/30 01:36:28;;;;;;;1.13;0.55;;;16.30;88.60;;;;;;2073178;28;20038;-83
2021/06/30 01:37:29;;;;;;;1.63;0.70;;;16.30;88.60;;;;;;2074493;28;20141;-83
2021/06/30 01:38:30;;;;;;;1.00;0.52;;;16.30;88.60;;;;;;2063486;28;20033;-83
2021/06/30 01:39:31;;;;;;;0.80;0.52;;;16.30;88.60;;;;;;2072733;28;20026;-83
2021/06/30 01:40:32;;;;;;;0.65;0.50;;;16.30;89.30;;;;;;2072711;28;20508;-82
2021/06/30 01:41:32;;;;;;;1.27;0.70;;;16.30;88.70;;;;;;2072809;28;20095;-83
2021/06/30 01:42:33;;;;;;;1.00;0.60;;;16.30;88.80;;;;;;2064920;28;20097;-82
2021/06/30 01:43:33;;;;;;;1.08;0.80;;;16.30;88.80;;;;;;2072958;28;20576;-83
2021/06/30 01:44:34;;;;;;;0.90;0.80;;;16.30;88.80;;;;;;2072649;28;20034;-83
2021/06/30 01:45:35;;;;;;;1.13;0.60;;;16.30;88.80;;;;;;2056508;28;20033;-83
2021/06/30 01:46:36;;;;;;;1.35;0.70;;;16.30;88.80;;;;;;2056607;28;20031;-83
2021/06/30 01:47:38;;;;;;;1.02;0.60;;;16.30;88.70;;;;;;2073075;28;20488;-83
2021/06/30 01:48:46;;;;;;;1.02;0.73;;;16.40;88.70;;;;;;2073692;28;20033;-84
2021/06/30 01:49:46;;;;;;;0.80;0.70;;;16.40;88.60;;;;;;2066378;28;20498;-84
2021/06/30 01:50:49;;;;;;;0.82;0.60;;;16.40;88.60;;;;;;2072463;28;20026;-83
2021/06/30 01:51:50;;;;;;;0.70;0.60;;;16.40;88.60;;;;;;2072062;28;20034;-84
2021/06/30 01:52:51;;;;;;;0.98;0.70;;;16.40;88.70;;;;;;2064699;28;20057;-83
2021/06/30 01:53:59;;;;;;;1.75;0.90;;;16.40;88.60;;;;;;2059456;28;20408;-83
2021/06/30 01:55:01;;;;;;;1.20;0.70;;;16.40;88.70;;;;;;2057616;28;20039;-83
2021/06/30 01:56:02;;;;;;;0.90;0.60;;;16.30;88.60;;;;;;2072229;28;20038;-83
2021/06/30 01:57:02;;;;;;;0.85;0.77;;;16.30;88.60;;;;;;2064621;28;20030;-83
2021/06/30 01:58:04;;;;;;;1.20;0.80;;;16.30;88.70;;;;;;2056623;28;20038;-83
2021/06/30 01:59:11;;;;;;;1.00;0.80;;;16.30;88.70;;;;;;2065095;28;20034;-83
2021/06/30 02:00:13;;;;;;;0.93;0.70;;;16.30;88.90;;;;;;2066585;28;20417;-83
2021/06/30 02:01:14;;;;;;;1.10;0.70;;;16.30;89.50;;;;;;2064775;28;20089;-83
2021/06/30 02:02:15;;;;;;;0.90;0.80;;;16.20;88.80;;;;;;2056459;28;20074;-84
2021/06/30 02:03:16;;;;;;;1.35;0.70;;;16.20;88.80;;;;;;2064405;28;20049;-83
2021/06/30 02:04:17;;;;;;;1.63;0.73;;;16.20;88.90;;;;;;2064530;28;20464;-83
2021/06/30 02:05:20;;;;;;;1.83;0.70;;;16.20;88.90;;;;;;2059596;28;20053;-82
2021/06/30 02:06:21;;;;;;;0.95;0.75;;;16.20;89.00;;;;;;2073114;28;20089;-83
2021/06/30 02:07:22;;;;;;;1.05;0.68;;;16.20;89.10;;;;;;2071765;28;20091;-83
2021/06/30 02:08:23;;;;;;;1.02;0.70;;;16.10;89.00;;;;;;2069726;28;20073;-83
2021/06/30 02:09:23;;;;;;;0.88;0.70;;;16.20;89.10;;;;;;2060286;28;20018;-83
2021/06/30 02:10:26;;;;;;;1.63;0.75;;;16.10;89.10;;;;;;2057070;28;20433;-84
2021/06/30 02:11:26;;;;;;;1.58;1.00;;;16.10;89.10;;;;;;2076534;28;20387;-83
2021/06/30 02:12:27;;;;;;;0.75;0.60;;;16.10;89.00;;;;;;2072472;28;20030;-83
2021/06/30 02:13:28;;;;;;;0.88;0.68;;;16.10;89.10;;;;;;2064801;28;20388;-83
2021/06/30 02:14:29;;;;;;;0.60;0.60;;;16.10;89.20;;;;;;2081066;28;20108;-83
2021/06/30 02:15:32;;;;;;;0.75;0.60;;;16.10;89.30;;;;;;2080600;28;20029;-84
2021/06/30 02:16:34;;;;;;;1.00;0.85;;;16.10;89.40;;;;;;2070302;28;20022;-83
2021/06/30 02:17:34;;;;;;;1.92;0.70;;;16.10;89.50;;;;;;2064352;28;20539;-84
2021/06/30 02:18:35;;;;;;;0.65;0.60;;;16.10;89.50;;;;;;2056887;28;20161;-84
2021/06/30 02:19:36;;;;;;;0.80;0.63;;;16.10;89.50;;;;;;2057164;28;20035;-84
2021/06/30 02:20:37;;;;;;;1.00;0.68;;;16.10;89.50;;;;;;2072685;28;20131;-84
2021/06/30 02:21:37;;;;;;;0.60;0.60;;;16.10;89.40;;;;;;2080445;28;20029;-84
2021/06/30 02:22:39;;;;;;;1.25;0.80;;;16.20;89.50;;;;;;2064763;28;20455;-84
2021/06/30 02:23:40;;;;;;;1.05;0.70;;;16.20;89.40;;;;;;2060197;28;20076;-83
2021/06/30 02:24:40;;;;;;;0.77;0.70;;;16.20;89.40;;;;;;2080820;28;20103;-84
2021/06/30 02:25:41;;;;;;;1.00;0.70;;;16.20;89.30;;;;;;2080300;28;20111;-84
2021/06/30 02:26:42;;;;;;;0.80;0.65;;;16.20;89.30;;;;;;2072176;28;20022;-84
2021/06/30 02:27:43;;;;;;;1.10;0.70;;;16.20;89.20;;;;;;2064028;28;20030;-84
2021/06/30 02:28:44;;;;;;;0.70;0.50;;;16.20;89.20;;;;;;2077897;28;20060;-84
2021/06/30 02:29:44;;;;;;;1.67;0.70;;;16.10;89.20;;;;;;2072549;28;20053;-84
2021/06/30 02:30:45;;;;;;;0.90;0.70;;;16.10;89.20;;;;;;2056745;28;20058;-84
2021/06/30 02:31:46;;;;;;;0.75;0.60;;;16.10;89.30;;;;;;2048328;28;20031;-84
2021/06/30 02:32:47;;;;;;;0.70;0.55;;;16.10;89.30;;;;;;2052020;28;20035;-84
2021/06/30 02:33:47;;;;;;;1.38;0.70;;;16.00;89.20;;;;;;2072359;28;20033;-84
2021/06/30 02:34:48;;;;;;;0.90;0.63;;;16.00;89.30;;;;;;2065125;28;20040;-84
2021/06/30 02:35:49;;;;;;;0.68;0.60;;;16.00;89.40;;;;;;2073152;28;20041;-84
2021/06/30 02:36:49;;;;;;;0.60;0.60;;;16.00;89.40;;;;;;2080828;28;20519;-83
2021/06/30 02:37:52;;;;;;;0.57;0.57;;;15.90;89.40;;;;;;2059553;28;20117;-83
2021/06/30 02:38:53;;;;;;;0.60;0.52;;;15.90;89.50;;;;;;2075292;28;20026;-83
2021/06/30 02:39:54;;;;;;;1.23;0.85;;;15.90;89.60;;;;;;2072934;28;20039;-84
2021/06/30 02:40:55;;;;;;;0.70;0.65;;;15.90;89.70;;;;;;2074817;28;20026;-84
2021/06/30 02:41:55;;;;;;;0.82;0.60;;;15.90;89.80;;;;;;2083741;28;20034;-84
2021/06/30 02:42:56;;;;;;;1.00;0.63;;;15.90;89.80;;;;;;2064679;28;20034;-84
2021/06/30 02:43:57;;;;;;;0.85;0.60;;;15.90;89.80;;;;;;2059662;28;20019;-85
2021/06/30 02:44:58;;;;;;;1.13;0.60;;;15.90;89.70;;;;;;2068673;28;20042;-84
2021/06/30 02:45:59;;;;;;;1.20;0.68;;;15.90;89.60;;;;;;2065768;28;20520;-85
2021/06/30 02:46:59;;;;;;;0.90;0.63;;;15.90;89.60;;;;;;2077027;28;20034;-84
2021/06/30 02:48:00;;;;;;;0.68;0.55;;;15.90;89.60;;;;;;2075721;28;20125;-84
2021/06/30 02:49:01;;;;;;;0.73;0.50;;;15.90;89.60;;;;;;2075158;28;20031;-82
2021/06/30 02:50:03;;;;;;;2.08;0.70;;;15.90;89.70;;;;;;2075493;28;20030;-80
2021/06/30 02:51:04;;;;;;;0.77;0.52;;;15.90;89.70;;;;;;2075547;28;20006;-82
2021/06/30 02:52:05;;;;;;;0.60;0.60;;;15.80;89.70;;;;;;2086400;28;20006;-84
2021/06/30 02:53:06;;;;;;;0.93;0.60;;;15.80;89.70;;;;;;2079587;28;20086;-85
2021/06/30 02:54:06;;;;;;;0.70;0.50;;;15.90;89.80;;;;;;2065143;28;20062;-84
2021/06/30 02:55:08;;;;;;;0.60;0.60;;;15.90;89.90;;;;;;2070315;28;20527;-85
2021/06/30 02:56:09;;;;;;;0.50;0.50;;;15.80;89.80;;;;;;2072629;28;20026;-85
2021/06/30 02:57:10;;;;;;;0.80;0.50;;;15.90;89.80;;;;;;2072800;28;20026;-85
2021/06/30 02:58:10;;;;;;;0.57;0.50;;;15.80;89.70;;;;;;2072909;28;20053;-85
2021/06/30 02:59:11;;;;;;;0.57;0.50;;;15.90;89.80;;;;;;2073048;28;20518;-84
2021/06/30 03:00:31;;;;;;;0.98;0.70;;;15.90;89.80;;;;;;2062221;28;20524;-85
2021/06/30 03:01:31;;;;;;;1.00;0.60;;;15.80;89.80;;;;;;2066569;28;20034;-85
2021/06/30 03:02:32;;;;;;;1.48;0.57;;;15.90;90.20;;;;;;2072616;28;20041;-85
2021/06/30 03:03:33;;;;;;;0.65;0.60;;;15.80;89.80;;;;;;2064340;28;20026;-85
2021/06/30 03:04:34;;;;;;;0.80;0.50;;;15.80;89.80;;;;;;2065304;28;20123;-85
2021/06/30 03:05:35;;;;;;;0.77;0.70;;;15.80;89.80;;;;;;2053295;28;20121;-85
2021/06/30 03:06:36;;;;;;;1.05;0.70;;;15.80;89.80;;;;;;2062623;28;20033;-85
2021/06/30 03:07:37;;;;;;;0.80;0.50;;;15.80;89.80;;;;;;2073762;28;20026;-85
2021/06/30 03:08:37;;;;;;;0.70;0.50;;;15.80;90.00;;;;;;2070630;28;20038;-82
2021/06/30 03:09:38;;;;;;;0.90;0.60;;;15.80;90.00;;;;;;2075448;28;20108;-84
2021/06/30 03:10:39;;;;;;;1.08;0.75;;;15.80;90.00;;;;;;2059114;28;20035;-84
2021/06/30 03:11:39;;;;;;;1.08;0.57;;;15.80;90.00;;;;;;2072973;28;20003;-84
2021/06/30 03:12:40;;;;;;;0.77;0.60;;;15.80;90.00;;;;;;2071440;28;20010;-84
2021/06/30 03:13:40;;;;;;;1.77;0.70;;;15.80;90.00;;;;;;2070199;28;20023;-86
2021/06/30 03:14:41;;;;;;;1.05;0.60;;;15.70;90.00;;;;;;2069945;28;20471;-85
2021/06/30 03:15:42;;;;;;;1.05;0.60;;;15.80;90.10;;;;;;2056336;28;20536;-85
2021/06/30 03:16:43;;;;;;;0.70;0.60;;;15.80;90.10;;;;;;2064785;28;20042;-84
2021/06/30 03:17:44;;;;;;;0.88;0.60;;;15.80;90.10;;;;;;2071682;28;20029;-85
2021/06/30 03:18:45;;;;;;;0.70;0.50;;;15.80;90.10;;;;;;2065018;28;20477;-85
2021/06/30 03:19:45;;;;;;;1.25;0.80;;;15.80;90.00;;;;;;2072591;28;20026;-85
2021/06/30 03:20:46;;;;;;;1.20;0.70;;;15.80;90.00;;;;;;2064266;28;20026;-85
2021/06/30 03:21:47;;;;;;;1.35;0.75;;;15.80;90.00;;;;;;2064699;28;20089;-85
2021/06/30 03:22:48;;;;;;;0.70;0.70;;;15.80;90.00;;;;;;2070274;28;20480;-85
2021/06/30 03:23:48;;;;;;;0.90;0.68;;;15.80;90.10;;;;;;2064709;28;20516;-86
2021/06/30 03:24:49;;;;;;;0.90;0.70;;;15.80;90.10;;;;;;2064476;28;20037;-85
2021/06/30 03:25:49;;;;;;;0.80;0.70;;;15.70;90.10;;;;;;2064434;28;20070;-85
2021/06/30 03:26:50;;;;;;;0.93;0.70;;;15.80;90.10;;;;;;2072360;28;20026;-85
2021/06/30 03:27:51;;;;;;;0.60;0.50;;;15.80;90.10;;;;;;2064598;28;20030;-85
2021/06/30 03:28:51;;;;;;;0.60;0.57;;;15.80;90.10;;;;;;2056593;28;20023;-85
2021/06/30 03:29:52;;;;;;;1.10;0.70;;;15.80;90.10;;;;;;2056317;28;20499;-85
2021/06/30 03:30:53;;;;;;;0.93;0.70;;;15.80;90.10;;;;;;2063567;28;20786;-84
2021/06/30 03:31:54;;;;;;;0.70;0.60;;;15.80;90.10;;;;;;2064034;28;20035;-84
2021/06/30 03:32:55;;;;;;;0.77;0.70;;;15.80;90.10;;;;;;2066235;28;20031;-84
2021/06/30 03:33:56;;;;;;;1.27;0.70;;;15.80;90.10;;;;;;2078109;28;20407;-84
2021/06/30 03:34:57;;;;;;;0.80;0.70;;;15.70;90.10;;;;;;2069598;28;20042;-84
2021/06/30 03:35:57;;;;;;;0.98;0.60;;;15.70;90.10;;;;;;2060420;28;20549;-84
2021/06/30 03:36:58;;;;;;;0.60;0.60;;;15.70;90.20;;;;;;2068458;28;20057;-84
2021/06/30 03:37:59;;;;;;;1.02;0.63;;;15.70;90.20;;;;;;2065216;28;20027;-84
2021/06/30 03:38:59;;;;;;;1.45;0.60;;;15.70;90.20;;;;;;2074407;28;20391;-84
2021/06/30 03:40:00;;;;;;;0.50;0.50;;;15.80;90.20;;;;;;2072457;28;20433;-84
2021/06/30 03:41:01;;;;;;;0.80;0.60;;;15.70;90.20;;;;;;2072687;28;20507;-84
2021/06/30 03:42:02;;;;;;;2.05;0.70;;;15.80;90.20;;;;;;2072632;28;20030;-84
2021/06/30 03:43:03;;;;;;;0.93;0.70;;;15.80;90.20;;;;;;2068127;28;20033;-84
2021/06/30 03:44:04;;;;;;;0.90;0.70;;;15.70;90.10;;;;;;2060220;28;20027;-84
2021/06/30 03:45:06;;;;;;;0.75;0.65;;;15.70;90.10;;;;;;2056468;28;20034;-84
2021/06/30 03:46:08;;;;;;;1.65;0.80;;;15.70;90.20;;;;;;2060945;28;20071;-84
2021/06/30 03:47:09;;;;;;;1.10;0.75;;;15.70;90.20;;;;;;2077886;28;20014;-84
2021/06/30 03:48:10;;;;;;;0.95;0.70;;;15.70;90.20;;;;;;2072556;28;20112;-84
2021/06/30 03:49:10;;;;;;;1.55;0.80;;;15.70;90.20;;;;;;2060712;28;20061;-84
2021/06/30 03:50:11;;;;;;;1.40;0.80;;;15.70;90.20;;;;;;2065661;28;20018;-85
2021/06/30 03:51:13;;;;;;;0.70;0.70;;;15.60;90.50;;;;;;2076280;28;20107;-85
2021/06/30 03:52:14;;;;;;;1.13;0.85;;;15.60;90.20;;;;;;2074476;28;20538;-85
2021/06/30 03:53:14;;;;;;;0.98;0.80;;;15.60;90.30;;;;;;2066126;28;20048;-85
2021/06/30 03:54:15;;;;;;;0.80;0.70;;;15.60;90.30;;;;;;2065412;28;20026;-84
2021/06/30 03:55:16;;;;;;;0.90;0.70;;;15.50;90.30;;;;;;2066723;28;20042;-84
2021/06/30 03:56:16;;;;;;;0.90;0.80;;;15.50;90.30;;;;;;2073367;28;20409;-84
2021/06/30 03:57:17;;;;;;;0.88;0.77;;;15.50;90.60;;;;;;2065310;28;20514;-84
2021/06/30 03:58:17;;;;;;;0.70;0.63;;;15.50;90.40;;;;;;2065443;28;20038;-84
2021/06/30 03:59:19;;;;;;;0.95;0.73;;;15.50;90.40;;;;;;2081883;28;20021;-84
2021/06/30 04:00:20;;;;;;;1.00;0.80;;;15.50;90.40;;;;;;2065806;28;20030;-85
2021/06/30 04:01:21;;;;;;;1.30;0.90;;;15.50;90.40;;;;;;2065029;28;20034;-85
2021/06/30 04:02:22;;;;;;;0.70;0.68;;;15.50;90.40;;;;;;2060537;28;20539;-85
2021/06/30 04:03:22;;;;;;;0.70;0.70;;;15.50;90.40;;;;;;2073311;28;20030;-85
2021/06/30 04:04:25;;;;;;;1.35;0.80;;;15.50;90.40;;;;;;2065819;28;20061;-85
2021/06/30 04:05:25;;;;;;;1.30;0.80;;;15.50;90.40;;;;;;2065872;28;20121;-85
2021/06/30 04:06:27;;;;;;;2.00;0.70;;;15.40;90.40;;;;;;2073853;28;20436;-85
2021/06/30 04:07:27;;;;;;;1.17;0.80;;;15.40;90.50;;;;;;2073590;28;20121;-85
2021/06/30 04:08:28;;;;;;;1.40;0.80;;;15.40;90.50;;;;;;2057675;28;20034;-85
2021/06/30 04:09:29;;;;;;;1.60;0.93;;;15.40;90.50;;;;;;2065629;28;20554;-85
2021/06/30 04:10:29;;;;;;;1.42;0.88;;;15.40;90.50;;;;;;2065725;28;20034;-85
2021/06/30 04:11:30;;;;;;;1.35;0.80;;;15.40;90.50;;;;;;2081984;28;20022;-85
2021/06/30 04:12:31;;;;;;;1.00;0.70;;;15.40;90.50;;;;;;2079738;28;20045;-85
2021/06/30 04:13:31;;;;;;;0.85;0.60;;;15.40;90.60;;;;;;2073567;28;20041;-85
2021/06/30 04:14:32;;;;;;;1.00;0.80;;;15.40;90.60;;;;;;2065465;28;20034;-85
2021/06/30 04:15:33;;;;;;;1.08;0.80;;;15.40;90.60;;;;;;2073296;28;20038;-85
2021/06/30 04:16:33;;;;;;;1.08;0.93;;;15.40;90.60;;;;;;2065769;28;20077;-85
2021/06/30 04:17:34;;;;;;;1.25;0.80;;;15.30;90.60;;;;;;2073699;28;20034;-85
2021/06/30 04:18:36;;;;;;;1.65;0.90;;;15.30;90.60;;;;;;2082184;28;20061;-85
2021/06/30 04:19:37;;;;;;;1.20;0.80;;;15.40;90.70;;;;;;2073751;28;20026;-84
2021/06/30 04:20:40;;;;;;;1.15;0.80;;;15.30;90.60;;;;;;2069690;28;20041;-84
2021/06/30 04:21:41;;;;;;;1.10;0.80;;;15.30;90.60;;;;;;2066450;28;20022;-84
2021/06/30 04:22:42;;;;;;;1.00;0.80;;;15.30;90.60;;;;;;2073216;28;20061;-84
2021/06/30 04:23:43;;;;;;;1.13;0.90;;;15.30;90.70;;;;;;2074056;28;20066;-85
2021/06/30 04:24:43;;;;;;;1.15;0.95;;;15.30;90.70;;;;;;2065213;28;20022;-85
2021/06/30 04:25:47;;;;;;;1.23;0.90;;;15.30;90.70;;;;;;2065700;28;20121;-84
2021/06/30 04:26:49;;;;;;;1.20;0.88;;;15.30;90.70;;;;;;2059043;28;20035;-85
2021/06/30 04:27:49;;;;;;;1.65;1.00;;;15.30;90.70;;;;;;2074353;28;20038;-85
2021/06/30 04:28:50;;;;;;;1.83;0.95;;;15.30;90.70;;;;;;2069834;28;20133;-86
2021/06/30 04:29:51;;;;;;;1.10;1.00;;;15.30;90.70;;;;;;2065377;28;20026;-85
2021/06/30 04:30:51;;;;;;;0.98;0.80;;;15.30;90.70;;;;;;2057893;28;20433;-85
2021/06/30 04:31:52;;;;;;;1.10;0.90;;;15.30;90.70;;;;;;2057179;28;20066;-85
2021/06/30 04:32:52;;;;;;;1.15;0.80;;;15.30;90.70;;;;;;2065177;28;20034;-86
2021/06/30 04:33:53;;;;;;;1.40;1.00;;;15.30;90.70;;;;;;2060344;28;20093;-85
2021/06/30 04:34:54;;;;;;;1.23;0.90;;;15.40;90.70;;;;;;2057654;28;20046;-85
2021/06/30 04:35:54;;;;;;;1.05;0.90;;;15.40;90.60;;;;;;2066650;28;20026;-86
2021/06/30 04:36:55;;;;;;;1.90;1.10;;;15.40;90.60;;;;;;2073417;28;20041;-85
2021/06/30 04:37:56;;;;;;;1.63;1.05;;;15.40;90.60;;;;;;2065677;28;20030;-85
2021/06/30 04:38:56;;;;;;;1.48;1.00;;;15.40;90.60;;;;;;2049778;28;20054;-85
2021/06/30 04:39:57;;;;;;;1.45;0.90;;;15.40;90.60;;;;;;2057610;28;20512;-86
2021/06/30 04:40:58;;;;;;;1.90;1.05;;;15.40;90.60;;;;;;2057305;28;20107;-85
2021/06/30 04:41:59;;;;;;;1.65;1.00;;;15.40;90.60;;;;;;2073428;28;20571;-85
2021/06/30 04:42:59;;;;;;;1.88;1.15;;;15.40;90.60;;;;;;2065535;28;20436;-85
2021/06/30 04:44:00;;;;;;;1.40;0.93;;;15.40;90.60;;;;;;2046647;28;20058;-85
2021/06/30 04:45:00;;;;;;;1.40;1.20;;;15.40;90.60;;;;;;2056077;28;20039;-85
2021/06/30 04:46:01;;;;;;;1.67;1.10;;;15.40;90.60;;;;;;2065754;28;20030;-86
2021/06/30 04:47:02;;;;;;;2.40;1.33;;;15.40;90.50;;;;;;2073057;28;20128;-85
2021/06/30 04:48:03;;;;;;;2.20;1.30;;;15.40;90.50;;;;;;2073035;28;20038;-86
2021/06/30 04:49:04;;;;;;;1.88;1.20;;;15.40;90.60;;;;;;2071899;28;20114;-85
2021/06/30 04:50:05;;;;;;;1.73;1.30;;;15.40;90.50;;;;;;2065310;28;20066;-85
2021/06/30 04:51:06;;;;;;;2.50;1.40;;;15.40;90.60;;;;;;2055782;28;20034;-85
2021/06/30 04:52:07;;;;;;;1.60;1.30;;;15.30;90.60;;;;;;2072769;28;20030;-85
2021/06/30 04:53:08;;;;;;;1.88;1.35;;;15.30;90.60;;;;;;2080282;28;20505;-85
2021/06/30 04:54:09;;;;;;;2.03;1.27;;;15.40;90.60;;;;;;2073781;28;20518;-86
2021/06/30 04:55:10;;;;;;;1.77;1.23;;;15.40;90.60;;;;;;2057046;28;20046;-86
2021/06/30 04:56:10;;;;;;;1.63;1.20;;;15.40;90.60;;;;;;2048806;28;20039;-86
2021/06/30 04:57:11;;;;;;;1.83;1.35;;;15.40;90.60;;;;;;2049388;29;20031;-86
2021/06/30 04:58:12;;;;;;;2.22;1.20;;;15.40;90.60;;;;;;2052594;28;20043;-85
2021/06/30 04:59:12;;;;;;;1.70;1.42;;;15.30;90.50;;;;;;2056557;28;20030;-85
2021/06/30 05:00:13;;;;;;;2.15;1.50;;;15.40;90.60;;;;;;2057595;28;20081;-86
2021/06/30 05:01:14;;;;;;;1.90;1.40;;;15.40;90.60;;;;;;2058286;28;20074;-85
2021/06/30 05:02:15;;;;;;;2.50;1.40;;;15.40;90.60;;;;;;2072552;28;20062;-85
2021/06/30 05:03:16;;;;;;;2.10;1.42;;;15.40;90.90;;;;;;2056694;28;20043;-85
2021/06/30 05:04:18;;;;;;;2.30;1.20;;;15.40;90.60;;;;;;2063979;28;20105;-85
2021/06/30 05:05:19;;;;;;;2.17;1.40;;;15.40;90.60;;;;;;2065412;28;20027;-85
2021/06/30 05:06:20;;;;;;;2.15;1.30;;;15.40;90.50;;;;;;2065307;28;20584;-85
2021/06/30 05:07:21;;;;;;;1.90;1.60;;;15.40;90.50;;;;;;2066165;28;20112;-85
2021/06/30 05:08:23;;;;;;;2.28;1.25;;;15.50;90.50;;;;;;2060875;28;20031;-86
2021/06/30 05:09:24;;;;;;;2.15;1.27;;;15.50;90.50;;;;;;2071229;28;20041;-85
2021/06/30 05:10:26;;;;;;;2.45;1.40;;;15.50;90.50;;;;;;2061914;28;20121;-86
2021/06/30 05:11:26;;;;;;;1.85;1.27;;;15.50;90.40;;;;;;2069661;28;20030;-85
2021/06/30 05:12:27;;;;;;;2.65;1.25;;;15.40;90.40;;;;;;2069372;28;20026;-85
2021/06/30 05:13:27;;;;;;;1.60;1.10;;;15.40;90.40;;;;;;2061397;28;20133;-85
2021/06/30 05:14:28;;;;;;;2.50;1.30;;;15.40;90.40;;;;;;2065518;28;20053;-85
2021/06/30 05:15:29;;;;;;;2.70;1.65;;;15.40;90.50;;;;;;2065284;28;20085;-85
2021/06/30 05:16:30;;;;;;;2.00;1.40;;;15.40;90.40;;;;;;2073204;28;20022;-85
2021/06/30 05:17:30;;;;;;;2.47;1.45;;;15.40;90.50;;;;;;2060280;28;20078;-85
2021/06/30 05:18:31;;;;;;;2.03;1.20;;;15.40;90.50;;;;;;2044149;28;20134;-84